Time;durP1;ratioP1;P1;durP2;ratioP2;P2;SDS_P1;SDS_P2;PMS_P1;PMS_P2;Temp;Humidity;BMP_temperature;BMP_pressure;BME280_temperature;BME280_humidity;BME280_pressure;Samples;Min_cycle;Max_cycle;Signal;HPM_P1;HPM_P2
2021/09/24 00:01:38;;;;;;;9.93;2.72;;;;;;;29.76;60.21;100833.31;5042053;28;70885;-36
2021/09/24 00:04:12;;;;;;;5.38;3.03;;;;;;;29.76;60.14;100825.19;5045780;28;65838;-36
2021/09/24 00:06:44;;;;;;;8.48;3.80;;;;;;;29.81;60.63;100820.81;5047400;28;69814;-36
2021/09/24 00:09:14;;;;;;;;;;;;;;;29.60;63.18;100832.69;5042009;28;64684;-34
2021/09/24 00:11:45;;;;;;;4.55;4.15;;;;;;;29.90;63.13;100836.78;5050231;28;69316;-36
2021/09/24 00:14:16;;;;;;;7.10;4.82;;;;;;;29.95;63.22;100836.94;5047728;28;67023;-36
2021/09/24 00:16:47;;;;;;;5.90;5.50;;;;;;;30.00;63.53;100834.44;5041790;28;70851;-38
2021/09/24 00:19:18;;;;;;;8.60;5.40;;;;;;;30.01;64.22;100834.22;5049321;28;65825;-38
2021/09/24 00:21:49;;;;;;;15.38;5.82;;;;;;;30.07;64.47;100835.25;5055350;28;70579;-37
2021/09/24 00:24:20;;;;;;;8.73;5.38;;;;;;;30.11;64.76;100846.44;5055740;28;66245;-36
2021/09/24 00:26:50;;;;;;;6.20;5.65;;;;;;;30.12;65.43;100846.25;5055551;27;69750;-37
2021/09/24 00:29:22;;;;;;;8.52;5.57;;;;;;;30.14;65.06;100854.13;5029551;28;66745;-37
2021/09/24 00:31:53;;;;;;;7.53;5.88;;;;;;;30.19;65.24;100857.03;5053929;28;69414;-36
2021/09/24 00:34:25;;;;;;;10.80;4.90;;;;;;;30.19;65.26;100857.84;5048603;28;66165;-36
2021/09/24 00:36:57;;;;;;;12.52;5.43;;;;;;;30.21;66.44;100858.47;5046997;28;69987;-37
2021/09/24 00:39:29;;;;;;;6.00;5.55;;;;;;;30.23;66.29;100861.00;5045804;28;66086;-36
2021/09/24 00:42:03;;;;;;;6.88;5.60;;;;;;;30.25;66.98;100872.41;5025877;28;71679;-36
2021/09/24 00:44:47;;;;;;;12.23;6.07;;;;;;;30.25;68.04;100873.25;5037187;28;65891;-36
2021/09/24 00:47:22;;;;;;;9.23;5.93;;;;;;;30.27;67.83;100876.56;5047157;28;69301;-37
2021/09/24 00:49:54;;;;;;;7.63;6.10;;;;;;;30.31;68.21;100879.66;5056664;28;66163;-37
2021/09/24 00:52:28;;;;;;;6.70;6.00;;;;;;;30.21;67.98;100866.59;5063787;28;70151;-37
2021/09/24 00:55:02;;;;;;;9.90;5.55;;;;;;;30.32;68.12;100894.06;5032305;28;65234;-37
2021/09/24 00:57:36;;;;;;;10.73;5.80;;;;;;;30.33;68.58;100896.53;5048283;28;70047;-37
2021/09/24 01:00:19;;;;;;;6.15;5.65;;;;;;;30.34;68.69;100903.63;5053231;28;64990;-37
2021/09/24 01:03:06;;;;;;;6.13;5.53;;;;;;;30.34;68.33;100902.75;5039470;28;70160;-36
2021/09/24 01:05:45;;;;;;;6.70;6.00;;;;;;;30.35;68.99;100909.84;5052636;28;65720;-36
2021/09/24 01:08:28;;;;;;;6.07;5.57;;;;;;;30.38;68.72;100909.41;5055947;28;69530;-38
2021/09/24 01:11:03;;;;;;;5.75;5.35;;;;;;;30.37;68.98;100913.16;5044341;28;66215;-36
2021/09/24 01:13:57;;;;;;;5.68;5.18;;;;;;;30.23;69.89;100897.00;5056309;28;69876;-37
2021/09/24 01:16:40;;;;;;;4.93;4.43;;;;;;;30.41;68.70;100914.41;5037457;28;66451;-37
2021/09/24 01:19:19;;;;;;;5.20;4.80;;;;;;;30.42;69.81;100916.03;5033772;28;68861;-36
2021/09/24 01:22:15;;;;;;;5.95;5.45;;;;;;;30.36;70.50;100922.34;5030834;28;66247;-38
2021/09/24 01:24:55;;;;;;;6.43;4.45;;;;;;;30.45;69.60;100923.72;5043592;28;69365;-36
2021/09/24 01:27:31;;;;;;;10.57;5.55;;;;;;;30.46;69.95;100917.28;5047107;28;66010;-37
2021/09/24 01:30:28;;;;;;;6.18;5.35;;;;;;;30.48;70.07;100917.91;5048712;28;69317;-37
2021/09/24 01:33:19;;;;;;;5.40;4.85;;;;;;;30.49;70.24;100922.25;5049417;28;66235;-37
2021/09/24 01:35:56;;;;;;;6.80;4.95;;;;;;;30.54;69.72;100913.50;5055808;28;69827;-37
2021/09/24 01:38:46;;;;;;;4.80;4.40;;;;;;;30.57;69.74;100919.31;5041778;28;66323;-36
2021/09/24 01:41:32;;;;;;;6.10;4.97;;;;;;;30.56;69.69;100916.81;5034441;28;70135;-37
2021/09/24 01:44:29;;;;;;;7.80;4.72;;;;;;;30.58;69.92;100915.53;5039040;28;66035;-37
2021/09/24 01:47:09;;;;;;;8.10;4.95;;;;;;;30.59;69.94;100919.94;5050518;28;69423;-37
2021/09/24 01:49:49;;;;;;;7.57;4.43;;;;;;;30.59;70.41;100919.94;5034586;28;65657;-37
2021/09/24 01:52:49;;;;;;;5.63;4.30;;;;;;;30.63;70.65;100918.44;5043615;28;70349;-36
2021/09/24 01:55:22;;;;;;;5.63;4.30;;;;;;;30.64;70.53;100920.06;5045995;28;66276;-37
2021/09/24 01:57:57;;;;;;;4.80;4.40;;;;;;;30.67;70.54;100919.66;5047077;28;69339;-36
2021/09/24 02:00:32;;;;;;;5.65;4.68;;;;;;;30.67;70.27;100927.78;5021370;28;65113;-37
2021/09/24 02:03:11;;;;;;;10.45;4.32;;;;;;;30.67;70.19;100925.09;5050424;28;70128;-37
2021/09/24 02:05:56;;;;;;;4.68;4.03;;;;;;;30.69;71.08;100925.69;5009006;28;66397;-36
2021/09/24 02:08:35;;;;;;;6.13;3.67;;;;;;;30.53;70.59;100896.41;5049616;28;70152;-35
2021/09/24 02:11:23;;;;;;;4.60;4.07;;;;;;;30.73;70.92;100924.22;5053314;28;66007;-37
2021/09/24 02:13:59;;;;;;;5.03;4.53;;;;;;;30.77;70.40;100921.06;5051328;28;70165;-36
2021/09/24 02:16:40;;;;;;;4.35;3.92;;;;;;;30.80;70.53;100912.53;5042370;28;65355;-36
2021/09/24 02:19:32;;;;;;;3.78;3.47;;;;;;;30.82;70.76;100921.28;5045001;28;69920;-37
2021/09/24 02:22:19;;;;;;;4.63;4.22;;;;;;;30.77;69.96;100891.28;5039105;28;66290;-36
2021/09/24 02:25:07;;;;;;;4.45;4.07;;;;;;;30.87;70.26;100913.28;5052870;28;69695;-37
2021/09/24 02:27:49;;;;;;;3.80;3.50;;;;;;;30.90;69.30;100912.88;5049444;28;65980;-37
2021/09/24 02:30:29;;;;;;;5.32;4.07;;;;;;;30.92;70.03;100906.19;5045294;28;69256;-37
2021/09/24 02:33:27;;;;;;;5.22;4.30;;;;;;;30.86;70.51;100912.47;5040284;28;66283;-37
2021/09/24 02:36:23;;;;;;;5.55;3.38;;;;;;;30.89;69.52;100905.78;5043724;28;69352;-36
2021/09/24 02:39:00;;;;;;;4.57;4.15;;;;;;;30.91;69.20;100915.34;5016188;28;66439;-36
2021/09/24 02:41:40;;;;;;;6.38;3.05;;;;;;;30.91;68.70;100906.41;5025202;28;69910;-38
2021/09/24 02:44:23;;;;;;;;;;;;;;;30.64;69.53;100903.84;5029618;28;66248;-37
2021/09/24 02:47:10;;;;;;;5.35;3.92;;;;;;;30.91;69.19;100899.09;5030932;28;70725;-38
2021/09/24 02:49:50;;;;;;;4.30;3.88;;;;;;;30.90;68.71;100902.03;5044674;28;66496;-37
2021/09/24 02:52:47;;;;;;;4.93;3.72;;;;;;;30.94;68.68;100893.25;5035471;28;70609;-37
2021/09/24 02:55:27;;;;;;;6.03;3.78;;;;;;;30.92;68.58;100889.09;5033239;28;66580;-37
2021/09/24 02:58:17;;;;;;;4.07;3.70;;;;;;;30.94;68.09;100893.25;5032101;28;70398;-38
2021/09/24 03:00:53;;;;;;;4.25;3.53;;;;;;;30.96;68.04;100901.16;5047323;28;66607;-36
2021/09/24 03:03:29;;;;;;;4.35;3.70;;;;;;;30.98;67.87;100892.78;5011221;28;70155;-38
2021/09/24 03:06:37;;;;;;;11.95;3.70;;;;;;;31.00;68.54;100893.41;5049102;28;66004;-38
2021/09/24 03:09:19;;;;;;;4.25;3.67;;;;;;;31.04;68.67;100891.94;5035633;28;70331;-37
2021/09/24 03:11:56;;;;;;;5.75;3.90;;;;;;;31.08;68.47;100893.13;5029216;28;64699;-37
2021/09/24 03:14:27;;;;;;;7.30;3.47;;;;;;;31.07;68.61;100892.31;5030878;28;70114;-38
2021/09/24 03:17:10;;;;;;;6.90;3.67;;;;;;;31.07;69.01;100884.19;5051951;28;65277;-39
2021/09/24 03:19:45;;;;;;;4.03;3.63;;;;;;;31.11;68.56;100877.25;5034332;28;70319;-37
2021/09/24 03:22:20;;;;;;;4.63;3.70;;;;;;;31.14;68.41;100886.81;5006926;28;66386;-37
2021/09/24 03:24:52;;;;;;;5.30;3.78;;;;;;;31.14;68.61;100882.22;5014704;28;70146;-40
2021/09/24 03:27:29;;;;;;;7.85;3.40;;;;;;;31.16;68.70;100880.13;5032402;28;65865;-38
2021/09/24 03:30:06;;;;;;;3.65;3.22;;;;;;;31.19;68.67;100878.88;5045308;28;70805;-37
2021/09/24 03:32:42;;;;;;;4.13;3.70;;;;;;;31.16;68.25;100871.19;5050125;28;65202;-41
2021/09/24 03:35:14;;;;;;;4.72;3.58;;;;;;;31.20;68.26;100871.56;5030170;28;70308;-38
2021/09/24 03:37:52;;;;;;;9.13;3.70;;;;;;;31.21;68.43;100867.81;5053018;28;66536;-37
2021/09/24 03:40:23;;;;;;;3.83;3.40;;;;;;;31.21;68.41;100870.53;5062622;28;71558;-37
2021/09/24 03:42:58;;;;;;;7.10;3.55;;;;;;;31.24;68.18;100876.31;5025908;28;65300;-38
2021/09/24 03:45:29;;;;;;;5.65;3.33;;;;;;;31.26;68.51;100860.66;5043891;28;69271;-37
2021/09/24 03:48:01;;;;;;;3.93;3.27;;;;;;;31.28;68.20;100860.44;5047584;28;65875;-37
2021/09/24 03:50:32;;;;;;;8.83;4.27;;;;;;;31.28;68.26;100855.84;5037473;28;69968;-36
2021/09/24 03:53:06;;;;;;;9.50;3.75;;;;;;;31.30;67.76;100852.91;5055882;28;65407;-36
2021/09/24 03:55:41;;;;;;;4.70;2.95;;;;;;;31.32;67.93;100856.25;5031798;28;70391;-37
2021/09/24 03:58:12;;;;;;;3.20;3.00;;;;;;;31.30;67.93;100844.78;5045574;28;66115;-37
2021/09/24 04:00:43;;;;;;;3.15;2.85;;;;;;;31.34;67.90;100837.84;5037284;28;68574;-36
2021/09/24 04:03:18;;;;;;;3.00;2.70;;;;;;;31.39;67.07;100838.03;5044110;28;66147;-36
2021/09/24 04:05:49;;;;;;;4.18;2.88;;;;;;;31.40;66.87;100826.16;5043254;28;70146;-36
2021/09/24 04:08:20;;;;;;;7.82;2.72;;;;;;;31.42;66.29;100818.63;5041589;28;66035;-37
2021/09/24 04:10:53;;;;;;;14.93;2.73;;;;;;;31.44;66.56;100821.94;5024716;28;70343;-36
2021/09/24 04:13:25;;;;;;;2.53;2.33;;;;;;;31.46;66.17;100813.59;5047875;28;65682;-37
2021/09/24 04:15:56;;;;;;;3.65;2.45;;;;;;;31.49;66.12;100819.38;5040238;28;69900;-37
2021/09/24 04:18:27;;;;;;;7.80;2.40;;;;;;;31.50;66.01;100807.47;5028570;28;66185;-37
2021/09/24 04:21:16;;;;;;;2.58;2.38;;;;;;;31.45;65.75;100801.91;5043396;27;69896;-38
2021/09/24 04:24:03;;;;;;;4.65;2.40;;;;;;;31.51;65.82;100794.75;5038798;28;66437;-36
2021/09/24 04:26:34;;;;;;;3.95;1.88;;;;;;;31.49;65.90;100800.41;5039371;28;71074;-37
2021/09/24 04:29:07;;;;;;;3.17;2.40;;;;;;;31.53;65.98;100793.47;5034802;28;66418;-37
2021/09/24 04:31:40;;;;;;;3.70;2.00;;;;;;;31.55;65.59;100788.66;5034763;28;70453;-37
2021/09/24 04:34:11;;;;;;;3.20;2.13;;;;;;;31.56;65.18;100782.16;5036865;28;66453;-37
2021/09/24 04:36:41;;;;;;;2.45;2.25;;;;;;;31.58;65.38;100771.91;5041163;28;69946;-37
2021/09/24 04:39:13;;;;;;;4.82;2.08;;;;;;;31.57;65.39;100761.31;5041358;28;65964;-37
2021/09/24 04:41:44;;;;;;;2.53;1.92;;;;;;;31.57;65.16;100748.59;5045479;28;69776;-37
2021/09/24 04:44:15;;;;;;;2.50;2.30;;;;;;;31.60;65.49;100734.56;5040261;28;66332;-37
2021/09/24 04:46:47;;;;;;;2.30;1.80;;;;;;;31.63;65.01;100732.47;5041431;28;71911;-38
2021/09/24 04:49:19;;;;;;;2.70;1.80;;;;;;;31.65;64.97;100714.06;5042207;28;66824;-37
2021/09/24 04:51:50;;;;;;;3.63;1.83;;;;;;;31.67;65.10;100712.78;5041021;28;70351;-37
2021/09/24 04:54:20;;;;;;;3.80;2.00;;;;;;;31.67;65.18;100714.66;5043944;28;66623;-37
2021/09/24 04:56:52;;;;;;;4.90;2.17;;;;;;;31.71;65.50;100705.03;5042481;28;70214;-37
2021/09/24 04:59:22;;;;;;;7.70;2.60;;;;;;;31.72;65.28;100710.19;5040333;28;66253;-36
2021/09/24 05:01:53;;;;;;;6.97;2.27;;;;;;;31.68;64.31;100692.75;5039200;28;70271;-38
2021/09/24 05:04:24;;;;;;;6.70;2.70;;;;;;;31.65;63.67;100700.50;5044647;28;66763;-38
2021/09/24 05:06:55;;;;;;;4.72;2.25;;;;;;;31.57;62.59;100693.53;5048886;28;70772;-38
2021/09/24 05:09:26;;;;;;;4.00;2.15;;;;;;;31.50;62.31;100693.59;5043291;28;66346;-37
2021/09/24 05:11:57;;;;;;;9.40;2.25;;;;;;;31.42;61.04;100688.50;5050932;28;69688;-36
2021/09/24 05:14:28;;;;;;;7.15;2.35;;;;;;;31.37;60.80;100688.34;5044248;28;66604;-37
2021/09/24 05:16:58;;;;;;;6.78;2.17;;;;;;;31.29;59.61;100686.78;5041177;28;69274;-36
2021/09/24 05:19:29;;;;;;;2.08;1.42;;;;;;;31.25;59.01;100685.56;5049581;28;66266;-38
2021/09/24 05:22:00;;;;;;;12.63;1.30;;;;;;;31.20;58.24;100665.63;5050454;28;69568;-38
2021/09/24 05:24:31;;;;;;;2.88;1.40;;;;;;;31.14;57.92;100654.63;5047049;28;66589;-37
2021/09/24 05:27:02;;;;;;;3.47;1.80;;;;;;;31.09;57.41;100662.63;5041931;28;71124;-37
2021/09/24 05:29:33;;;;;;;4.30;1.40;;;;;;;31.07;57.07;100656.63;5034671;28;66245;-38
2021/09/24 05:32:05;;;;;;;2.30;1.70;;;;;;;31.04;56.35;100659.78;5053984;28;71529;-37
2021/09/24 05:34:38;;;;;;;5.57;1.33;;;;;;;31.03;55.92;100652.69;5039051;28;66339;-42
2021/09/24 05:37:10;;;;;;;9.05;1.65;;;;;;;31.00;55.50;100647.72;5030617;28;69869;-38
2021/09/24 05:39:42;;;;;;;2.13;1.45;;;;;;;30.95;55.53;100655.69;5025330;28;66505;-37
2021/09/24 05:42:14;;;;;;;;;;;;;;;30.66;54.53;100659.97;5024762;28;69407;-38
2021/09/24 05:44:44;;;;;;;6.35;1.40;;;;;;;30.89;55.04;100662.03;5029026;28;66335;-38
2021/09/24 05:47:15;;;;;;;5.43;1.05;;;;;;;30.87;54.46;100658.72;5034005;28;70047;-38
2021/09/24 05:49:46;;;;;;;3.35;1.40;;;;;;;30.86;54.98;100659.78;5033098;28;67177;-38
2021/09/24 05:52:18;;;;;;;4.07;1.58;;;;;;;30.79;54.27;100661.72;5032536;28;69457;-38
2021/09/24 05:54:49;;;;;;;3.00;1.50;;;;;;;30.82;53.21;100650.47;5036160;28;64999;-38
2021/09/24 05:57:20;;;;;;;3.65;1.50;;;;;;;30.79;53.92;100642.75;5042397;28;70016;-38
2021/09/24 05:59:50;;;;;;;3.78;1.23;;;;;;;30.81;53.35;100659.63;5040206;28;66467;-38
2021/09/24 06:02:21;;;;;;;1.40;1.30;;;;;;;30.77;52.78;100671.94;5051947;28;69491;-37
2021/09/24 06:04:53;;;;;;;10.52;1.90;;;;;;;30.73;53.16;100690.50;5051552;28;66622;-38
2021/09/24 06:07:25;;;;;;;5.68;1.60;;;;;;;30.72;52.58;100705.91;5050620;28;69308;-38
2021/09/24 06:09:56;;;;;;;7.80;1.70;;;;;;;30.72;53.65;100705.09;5045874;28;65253;-37
2021/09/24 06:12:27;;;;;;;2.08;1.67;;;;;;;30.71;53.28;100704.25;5043483;28;69385;-37
2021/09/24 06:15:00;;;;;;;1.70;1.60;;;;;;;30.68;53.96;100699.28;5040196;28;65412;-37
2021/09/24 06:17:32;;;;;;;2.72;1.90;;;;;;;30.67;54.21;100702.22;5028033;28;70408;-37
2021/09/24 06:20:05;;;;;;;2.80;2.17;;;;;;;30.63;54.18;100685.59;5038356;28;65861;-37
2021/09/24 06:22:36;;;;;;;2.17;1.38;;;;;;;30.59;53.50;100681.69;5038663;28;69373;-37
2021/09/24 06:25:08;;;;;;;2.80;2.03;;;;;;;30.58;53.98;100682.72;5041141;28;66199;-37
2021/09/24 06:27:39;;;;;;;2.00;1.80;;;;;;;30.57;53.92;100680.25;5036244;28;69856;-36
2021/09/24 06:30:13;;;;;;;1.77;1.58;;;;;;;30.49;53.45;100667.84;5044987;28;65538;-37
2021/09/24 06:32:45;;;;;;;3.65;1.58;;;;;;;30.52;53.33;100666.56;5045382;28;69699;-37
2021/09/24 06:35:17;;;;;;;5.68;1.55;;;;;;;30.50;53.52;100669.47;5038906;28;66554;-39
2021/09/24 06:37:53;;;;;;;5.13;1.38;;;;;;;30.47;52.78;100659.91;5045850;28;69132;-37
2021/09/24 06:40:26;;;;;;;5.63;1.80;;;;;;;30.45;52.92;100655.78;5040328;28;66647;-38
2021/09/24 06:42:58;;;;;;;1.60;1.50;;;;;;;30.42;52.91;100650.81;5042396;28;69998;-38
2021/09/24 06:45:30;;;;;;;4.93;1.40;;;;;;;30.38;52.46;100638.78;5034749;28;66442;-37
2021/09/24 06:48:01;;;;;;;10.05;1.50;;;;;;;30.33;52.30;100635.91;5040920;28;70420;-39
2021/09/24 06:50:35;;;;;;;3.47;1.20;;;;;;;30.32;52.07;100640.50;5034876;28;66707;-38
2021/09/24 06:53:07;;;;;;;4.38;1.25;;;;;;;30.28;51.97;100632.03;5046290;28;70248;-38
2021/09/24 06:55:39;;;;;;;;;;;;;;;29.97;52.32;100637.44;5046595;28;65258;-38
2021/09/24 06:58:12;;;;;;;2.75;1.10;;;;;;;30.14;51.62;100625.00;5015848;28;70217;-38
2021/09/24 07:00:50;;;;;;;3.22;1.10;;;;;;;30.18;51.86;100631.66;5037460;28;66869;-39
2021/09/24 07:03:27;;;;;;;2.85;1.02;;;;;;;30.15;51.55;100633.97;5035563;28;70700;-38
2021/09/24 07:06:05;;;;;;;2.67;1.00;;;;;;;30.12;51.36;100640.66;5042864;28;67262;-39
2021/09/24 07:08:41;;;;;;;1.20;1.02;;;;;;;30.11;50.87;100652.50;5038561;28;71329;-38
2021/09/24 07:11:16;;;;;;;5.85;0.98;;;;;;;30.06;51.60;100647.78;5038401;28;65988;-39
2021/09/24 07:14:00;;;;;;;1.40;1.30;;;;;;;30.12;54.30;100648.78;5043213;28;70131;-40
2021/09/24 07:16:35;;;;;;;4.22;1.30;;;;;;;30.20;55.14;100651.22;5030812;28;65637;-38
2021/09/24 07:19:08;;;;;;;9.48;1.73;;;;;;;30.19;56.41;100640.59;5018140;28;70028;-37
2021/09/24 07:21:49;;;;;;;2.13;1.40;;;;;;;30.36;58.09;100657.94;5029882;28;66339;-39
2021/09/24 07:24:27;;;;;;;9.80;1.80;;;;;;;30.46;59.21;100650.16;5050556;28;70072;-39
2021/09/24 07:27:08;;;;;;;3.30;1.73;;;;;;;30.55;59.98;100642.56;5051459;28;65685;-39
2021/09/24 07:29:42;;;;;;;4.90;1.60;;;;;;;30.62;60.83;100637.06;5052239;28;70670;-39
2021/09/24 07:32:14;;;;;;;4.05;2.00;;;;;;;30.68;62.25;100634.31;5035677;28;66248;-39
2021/09/24 07:34:49;;;;;;;8.25;2.20;;;;;;;30.66;61.71;100620.16;5036255;28;70536;-39
2021/09/24 07:37:33;;;;;;;4.80;2.35;;;;;;;30.81;62.59;100617.09;5042709;28;66375;-39
2021/09/24 07:40:07;;;;;;;11.23;2.78;;;;;;;30.86;62.97;100608.31;5045242;28;69152;-39
2021/09/24 07:42:45;;;;;;;7.28;2.80;;;;;;;30.93;63.51;100603.66;5048218;28;65790;-37
2021/09/24 07:45:24;;;;;;;6.65;6.10;;;;;;;30.71;65.26;100568.88;5053127;28;70141;-39
2021/09/24 07:48:02;;;;;;;7.07;6.43;;;;;;;30.83;65.36;100598.75;5044552;27;66542;-39
2021/09/24 07:50:40;;;;;;;7.20;6.70;;;;;;;30.75;65.61;100600.91;5047684;28;70066;-39
2021/09/24 07:53:16;;;;;;;8.80;6.03;;;;;;;30.68;66.48;100609.13;5036122;28;65631;-38
2021/09/24 07:55:48;;;;;;;6.88;6.45;;;;;;;30.64;66.19;100616.84;5009731;28;69583;-39
2021/09/24 07:58:24;;;;;;;7.65;6.95;;;;;;;30.54;66.79;100611.16;5045849;28;66322;-37
2021/09/24 08:01:10;;;;;;;10.10;6.75;;;;;;;30.50;67.11;100616.16;5046605;28;70233;-38
2021/09/24 08:03:44;;;;;;;7.55;6.90;;;;;;;30.47;67.72;100611.19;5035898;28;66204;-39
2021/09/24 08:06:20;;;;;;;8.55;7.50;;;;;;;30.49;67.85;100602.88;5047130;28;69447;-38
2021/09/24 08:08:56;;;;;;;7.40;6.82;;;;;;;30.46;68.01;100592.50;5026155;28;65441;-38
2021/09/24 08:11:34;;;;;;;7.90;7.22;;;;;;;30.44;67.83;100594.59;5031941;28;69918;-37
2021/09/24 08:14:11;;;;;;;8.10;7.32;;;;;;;30.42;68.19;100588.56;5028252;28;66690;-37
2021/09/24 08:16:45;;;;;;;8.50;7.90;;;;;;;30.37;68.17;100583.00;5033256;28;70530;-38
2021/09/24 08:19:17;;;;;;;11.07;7.97;;;;;;;30.34;68.36;100595.13;5055512;28;66579;-37
2021/09/24 08:21:53;;;;;;;9.00;8.07;;;;;;;30.33;68.37;100601.56;5045532;28;70100;-38
2021/09/24 08:24:28;;;;;;;7.97;7.43;;;;;;;30.25;68.08;100608.09;5048187;28;66480;-37
2021/09/24 08:27:04;;;;;;;9.05;7.40;;;;;;;30.21;68.24;100612.25;5041213;28;70110;-37
2021/09/24 08:29:36;;;;;;;8.35;7.68;;;;;;;30.19;68.73;100617.06;5053576;28;65595;-37
2021/09/24 08:32:10;;;;;;;8.05;7.30;;;;;;;30.20;68.40;100626.00;5030284;28;70257;-37
2021/09/24 08:34:42;;;;;;;8.20;7.60;;;;;;;30.15;68.27;100617.75;5026513;28;65298;-37
2021/09/24 08:37:14;;;;;;;8.10;7.40;;;;;;;30.19;68.00;100621.66;5015535;28;69056;-38
2021/09/24 08:39:45;;;;;;;8.50;7.60;;;;;;;30.15;68.46;100618.56;5045211;28;66216;-37
2021/09/24 08:42:18;;;;;;;8.32;7.35;;;;;;;30.12;68.40;100608.19;5043129;28;71323;-37
2021/09/24 08:44:50;;;;;;;7.55;6.97;;;;;;;30.08;68.68;100617.78;5050800;28;66443;-37
2021/09/24 08:47:24;;;;;;;7.93;7.13;;;;;;;30.05;69.27;100602.81;5048381;28;69623;-38
2021/09/24 08:50:00;;;;;;;8.00;7.40;;;;;;;30.07;69.13;100599.91;5051725;28;66183;-38
2021/09/24 08:52:40;;;;;;;7.90;7.07;;;;;;;30.06;68.69;100600.94;5048542;28;70235;-36
2021/09/24 08:55:13;;;;;;;8.05;7.22;;;;;;;30.05;69.13;100597.41;5040425;28;65874;-37
2021/09/24 08:57:49;;;;;;;8.52;7.72;;;;;;;30.04;69.15;100592.25;5048486;28;70570;-37
2021/09/24 09:00:22;;;;;;;10.38;9.57;;;;;;;30.03;68.96;100599.53;5050529;27;65539;-39
2021/09/24 09:03:08;;;;;;;11.77;10.65;;;;;;;29.98;69.21;100598.53;5007133;28;69942;-37
2021/09/24 09:06:02;;;;;;;10.27;9.38;;;;;;;29.92;70.53;100602.09;5026559;28;65895;-37
2021/09/24 09:08:40;;;;;;;10.07;9.02;;;;;;;29.96;69.54;100604.16;5049325;28;69949;-39
2021/09/24 09:11:21;;;;;;;9.32;8.48;;;;;;;29.92;69.69;100599.41;5036414;28;66749;-38
2021/09/24 09:13:56;;;;;;;8.80;7.90;;;;;;;29.95;70.02;100604.38;5052500;28;70575;-37
2021/09/24 09:16:29;;;;;;;9.52;8.63;;;;;;;29.91;70.22;100600.47;5032509;28;65512;-38
2021/09/24 09:19:17;;;;;;;8.45;7.35;;;;;;;29.87;69.69;100594.69;5042346;28;70264;-39
2021/09/24 09:21:49;;;;;;;8.25;7.55;;;;;;;29.92;69.95;100596.69;5019760;28;65874;-39
2021/09/24 09:24:24;;;;;;;7.57;7.05;;;;;;;29.94;70.19;100572.97;5040812;28;70315;-37
2021/09/24 09:27:18;;;;;;;8.02;7.40;;;;;;;30.07;69.84;100594.50;5049924;28;66930;-38
2021/09/24 09:30:11;;;;;;;8.50;7.20;;;;;;;30.17;70.46;100605.66;5053820;28;68913;-37
2021/09/24 09:32:58;;;;;;;10.45;6.55;;;;;;;30.02;70.73;100570.81;5053148;28;66262;-37
2021/09/24 09:35:33;;;;;;;8.52;6.75;;;;;;;30.26;70.11;100607.06;5042277;28;70311;-38
2021/09/24 09:38:05;;;;;;;12.73;5.95;;;;;;;30.28;70.29;100607.66;5045902;28;65844;-38
2021/09/24 09:40:36;;;;;;;6.90;6.40;;;;;;;30.22;70.17;100611.25;5039683;28;69837;-39
2021/09/24 09:43:07;;;;;;;7.55;6.72;;;;;;;30.22;70.61;100624.75;5037135;27;67177;-38
2021/09/24 09:45:40;;;;;;;12.27;6.27;;;;;;;30.23;70.25;100623.72;5039890;28;70006;-38
2021/09/24 09:48:13;;;;;;;7.13;6.47;;;;;;;30.20;70.64;100623.28;5046909;28;65543;-39
2021/09/24 09:50:46;;;;;;;8.88;5.80;;;;;;;30.20;70.88;100620.59;5042415;28;70190;-38
2021/09/24 09:53:18;;;;;;;9.18;5.43;;;;;;;29.96;70.77;100587.94;5048487;28;66158;-38
2021/09/24 09:55:55;;;;;;;11.07;6.25;;;;;;;30.11;71.15;100616.53;5046333;28;70262;-37
2021/09/24 09:58:28;;;;;;;5.55;5.15;;;;;;;29.99;71.46;100594.78;5039662;28;66855;-38
2021/09/24 10:01:03;;;;;;;8.48;6.00;;;;;;;30.08;71.04;100635.91;5042353;27;69077;-39
2021/09/24 10:03:34;;;;;;;10.82;5.70;;;;;;;30.06;71.88;100631.56;5023527;28;66433;-38
2021/09/24 10:06:31;;;;;;;6.70;4.90;;;;;;;29.84;72.50;100612.16;5033990;28;70639;-39
2021/09/24 10:09:41;;;;;;;8.23;5.28;;;;;;;30.06;72.01;100636.97;5027908;28;65696;-38
2021/09/24 10:12:19;;;;;;;;;;;;;;;29.84;72.89;100641.09;5039288;28;70192;-38
2021/09/24 10:14:52;;;;;;;5.78;5.38;;;;;;;29.93;71.06;100610.00;5035611;28;65556;-38
2021/09/24 10:17:24;;;;;;;6.22;5.60;;;;;;;30.09;71.71;100646.50;5036714;28;69963;-39
2021/09/24 10:19:56;;;;;;;8.73;5.47;;;;;;;30.15;71.40;100645.63;5046316;28;66016;-38
2021/09/24 10:22:27;;;;;;;5.28;4.88;;;;;;;30.14;71.44;100641.25;5042594;28;69271;-38
2021/09/24 10:25:00;;;;;;;8.40;5.00;;;;;;;30.23;72.67;100645.38;5054459;28;66016;-38
2021/09/24 10:27:36;;;;;;;7.15;5.10;;;;;;;30.10;71.99;100623.81;5045555;28;67795;-37
2021/09/24 10:30:12;;;;;;;5.47;5.07;;;;;;;30.31;72.42;100648.84;5043725;28;65155;-36
2021/09/24 10:33:04;;;;;;;5.00;4.57;;;;;;;30.24;72.42;100649.72;5040945;28;70568;-37
2021/09/24 10:35:51;;;;;;;5.05;4.65;;;;;;;30.27;72.33;100643.88;5044348;28;65769;-37
2021/09/24 10:38:36;;;;;;;4.45;4.15;;;;;;;30.39;71.57;100648.56;5042376;27;69325;-37
2021/09/24 10:41:22;;;;;;;4.57;4.18;;;;;;;30.40;71.41;100651.06;5039616;28;66121;-37
2021/09/24 10:43:55;;;;;;;4.95;4.50;;;;;;;30.38;71.98;100641.50;5047671;28;69379;-37
2021/09/24 10:46:39;;;;;;;4.50;4.10;;;;;;;30.39;71.91;100646.66;5045650;28;66044;-36
2021/09/24 10:49:16;;;;;;;4.82;4.43;;;;;;;30.46;71.48;100652.03;5045110;28;69525;-37
2021/09/24 10:52:12;;;;;;;6.78;4.35;;;;;;;30.37;71.97;100643.38;5044728;28;66726;-37
2021/09/24 10:54:59;;;;;;;4.60;4.20;;;;;;;30.42;71.45;100648.97;5026292;28;69142;-37
2021/09/24 10:57:52;;;;;;;4.40;4.00;;;;;;;30.40;71.87;100663.75;5044522;28;66255;-37
2021/09/24 11:00:28;;;;;;;4.20;3.75;;;;;;;30.38;71.75;100644.19;5050103;28;70000;-36
2021/09/24 11:03:22;;;;;;;4.03;3.72;;;;;;;30.31;71.91;100643.44;5036426;28;66368;-37
2021/09/24 11:06:03;;;;;;;4.22;3.65;;;;;;;30.51;71.03;100665.75;5045592;28;70054;-42
2021/09/24 11:08:43;;;;;;;4.18;3.72;;;;;;;30.50;71.24;100664.88;5039067;28;66358;-37
2021/09/24 11:11:29;;;;;;;4.13;3.72;;;;;;;30.49;71.60;100678.66;5021181;28;70343;-39
2021/09/24 11:14:31;;;;;;;4.47;4.00;;;;;;;30.44;71.76;100681.19;5036257;28;66728;-37
2021/09/24 11:17:04;;;;;;;4.00;3.70;;;;;;;30.54;71.43;100688.81;5020907;28;69221;-37
2021/09/24 11:19:47;;;;;;;3.97;3.67;;;;;;;30.53;71.54;100687.97;5040417;28;65766;-36
2021/09/24 11:22:41;;;;;;;8.10;3.90;;;;;;;30.46;71.29;100685.34;5027983;28;69891;-37
2021/09/24 11:25:18;;;;;;;4.20;3.90;;;;;;;30.51;71.40;100681.97;5022150;28;66181;-38
2021/09/24 11:27:55;;;;;;;4.95;3.70;;;;;;;30.49;71.73;100686.78;5050430;28;70179;-37
2021/09/24 11:30:31;;;;;;;8.73;4.03;;;;;;;30.59;71.75;100699.78;5033311;28;65310;-37
2021/09/24 11:33:04;;;;;;;4.20;3.85;;;;;;;30.64;71.14;100695.38;5041782;28;70252;-37
2021/09/24 11:35:45;;;;;;;4.43;4.13;;;;;;;30.65;71.50;100699.75;5027576;28;66294;-37
2021/09/24 11:38:20;;;;;;;6.47;5.25;;;;;;;30.52;71.51;100672.78;5049041;28;70087;-38
2021/09/24 11:40:57;;;;;;;5.00;4.70;;;;;;;30.63;71.90;100696.44;5035797;28;66367;-39
2021/09/24 11:43:40;;;;;;;12.88;5.18;;;;;;;30.70;71.88;100699.06;5044476;28;69913;-37
2021/09/24 11:46:24;;;;;;;5.30;4.85;;;;;;;30.65;72.77;100694.34;5047718;28;65244;-38
2021/09/24 11:48:57;;;;;;;10.35;4.68;;;;;;;30.72;72.42;100705.91;5044562;28;70663;-37
2021/09/24 11:51:31;;;;;;;5.07;4.60;;;;;;;30.56;71.87;100679.41;5047060;28;67056;-37
2021/09/24 11:54:02;;;;;;;4.95;4.43;;;;;;;30.73;72.03;100704.06;5046797;28;69885;-37
2021/09/24 11:56:38;;;;;;;8.13;5.07;;;;;;;30.62;72.46;100689.38;5043019;28;66711;-37
2021/09/24 11:59:18;;;;;;;5.03;4.72;;;;;;;30.71;72.51;100701.56;5047003;28;70382;-37
2021/09/24 12:01:50;;;;;;;5.53;5.13;;;;;;;30.68;72.30;100702.00;5003590;28;66227;-37
2021/09/24 12:04:26;;;;;;;8.50;5.20;;;;;;;30.64;72.20;100698.06;5042112;28;70552;-38
2021/09/24 12:07:00;;;;;;;9.60;5.47;;;;;;;30.73;72.65;100710.28;5049599;28;66223;-38
2021/09/24 12:09:37;;;;;;;5.30;4.80;;;;;;;30.73;72.86;100715.72;5030160;28;70082;-38
2021/09/24 12:12:20;;;;;;;5.38;4.97;;;;;;;30.72;72.72;100715.91;5040859;28;65783;-37